Data for 04/06/2005

Time Sea-Level Adjusted Pressure Absolute Pressure Temperature Relative Humidity Dew Point   
(mb) (inHg) (mb) (inHg) (C) (F) (%) (C) (F)
00:05 1026 30.3 855 25.25 2.5 36.5 69 -2.5 27.4
00:10 1026 30.3 855 25.25 2.4 36.3 68 -2.9 26.7
00:15 1026 30.3 855 25.25 2.6 36.6 66 -3.1 26.4
00:20 1026 30.3 855 25.25 2.6 36.7 66 -3 26.5
00:25 1026 30.3 855 25.25 2.4 36.3 68 -3 26.6
00:30 1026 30.3 855 25.25 2.4 36.4 68 -2.9 26.8
00:35 1026 30.3 855 25.25 2.4 36.3 68 -2.8 26.9
00:40 1026 30.3 855 25.25 2.2 35.9 70 -2.8 27
00:45 1026 30.3 855 25.25 2.1 35.8 68 -3.1 26.5
00:50 1026 30.3 855 25.25 2.3 36.1 68 -3 26.6
00:55 1026 30.3 855 25.25 2.1 35.9 69 -2.9 26.7
01:00 1026 30.3 855 25.25 2.1 35.7 68 -3.2 26.2
01:05 1026 30.3 855 25.25 2.1 35.8 69 -3 26.6
01:10 1026 30.3 855 25.25 2 35.6 66 -3.6 25.5
01:15 1026 30.3 855 25.25 2 35.6 68 -3.2 26.3
01:20 1026 30.3 855 25.25 1.9 35.4 67 -3.5 25.7
01:25 1026 30.3 855 25.25 2.1 35.8 65 -3.7 25.3
01:30 1026 30.3 855 25.25 2.2 35.9 65 -3.8 25.2
01:35 1026 30.3 855 25.25 2.1 35.8 67 -3.5 25.8
01:40 1026 30.3 855 25.25 2.3 36.1 64 -3.8 25.2
01:45 1026 30.3 855 25.25 2.1 35.8 67 -3.3 26
01:50 1026 30.3 855 25.25 1.8 35.2 67 -3.7 25.3
01:55 1026 30.3 855 25.25 2 35.5 66 -3.7 25.4
02:00 1026 30.3 855 25.25 1.9 35.5 68 -3.3 26
02:05 1026 30.3 855 25.25 1.6 34.9 68 -3.6 25.6
02:10 1026 30.3 855 25.25 1.8 35.2 67 -3.8 25.2
02:15 1026 30.3 855 25.25 1.7 35.1 67 -3.8 25.1
02:20 1026 30.3 855 25.25 2.2 35.9 64 -4 24.8
02:25 1026 30.3 855 25.25 2.3 36.2 62 -4.1 24.6
02:30 1026 30.3 855 25.25 2.4 36.4 63 -3.9 24.9
02:35 1026 30.3 855 25.25 2.3 36.2 63 -4 24.7
02:40 1026 30.3 855 25.25 2.4 36.3 62 -4.3 24.3
02:45 1026 30.3 855 25.25 2.4 36.4 62 -4.1 24.6
02:50 1026 30.3 855 25.25 2.4 36.3 63 -4 24.9
02:55 1026 30.3 855 25.25 2 35.6 67 -3.6 25.6
03:00 1026 30.3 855 25.25 1.6 34.8 69 -3.6 25.6
03:05 1026 30.3 855 25.25 1.2 34.2 69 -3.7 25.3
03:10 1026 30.3 855 25.25 1.3 34.3 69 -3.8 25.1
03:15 1026 30.3 855 25.25 1.3 34.3 69 -3.7 25.3
03:20 1026 30.3 855 25.25 1.3 34.3 68 -3.9 24.9
03:25 1026 30.3 856 25.28 1.6 34.8 67 -4 24.8
03:30 1026 30.3 856 25.28 1.6 34.9 68 -3.7 25.3
03:35 1026 30.3 856 25.28 1.6 34.8 68 -3.8 25.2
03:40 1026 30.3 856 25.28 1.6 34.9 67 -3.8 25.2
03:45 1026 30.3 856 25.28 1.9 35.4 66 -3.8 25.2
03:50 1026 30.3 855 25.25 1.6 34.9 68 -3.7 25.3
03:55 1026 30.3 856 25.28 1.7 35 68 -3.5 25.7
04:00 1026 30.3 856 25.28 1.7 35 67 -3.8 25.1
04:05 1026 30.3 856 25.28 1.9 35.3 65 -4.1 24.6
04:10 1026 30.3 856 25.28 1.8 35.2 65 -4.2 24.5
04:15 1026 30.3 856 25.28 2 35.6 65 -4 24.8
04:20 1026 30.3 856 25.28 1.9 35.4 66 -3.8 25.1
04:25 1026 30.3 856 25.28 1.9 35.3 66 -3.8 25.2
04:30 1026 30.3 856 25.28 1.7 35.1 65 -4.1 24.7
04:35 1026 30.3 856 25.28 1.4 34.5 70 -3.4 25.9
04:40 1026 30.3 855 25.25 0.8 33.4 70 -4 24.7
04:45 1026 30.3 855 25.25 0.9 33.6 71 -3.8 25.1
04:50 1026 30.3 856 25.28 1 33.8 69 -4.1 24.7
04:55 1026 30.3 856 25.28 1.3 34.4 68 -3.9 24.9
05:00 1026 30.3 856 25.28 1.4 34.5 67 -4 24.8
05:05 1026 30.3 855 25.25 1.4 34.5 68 -3.9 24.9
05:10 1026 30.3 855 25.25 1.3 34.4 68 -3.8 25.1
05:15 1026 30.3 855 25.25 1.1 33.9 70 -3.8 25.2
05:20 1026 30.3 855 25.25 0.9 33.6 70 -4 24.8
05:25 1026 30.3 856 25.28 0.9 33.7 69 -4.1 24.7
05:30 1026 30.3 856 25.28 1.4 34.6 65 -4.3 24.2
05:35 1026 30.3 856 25.28 1.8 35.3 64 -4.2 24.5
05:40 1026 30.3 856 25.28 1.8 35.2 66 -3.8 25.1
05:45 1026 30.3 856 25.28 1.6 34.8 67 -4 24.8
05:50 1026 30.3 856 25.28 1.6 34.9 67 -3.9 25
05:55 1026 30.3 856 25.28 1.4 34.6 68 -3.8 25.1
06:00 1026 30.3 856 25.28 1.3 34.3 69 -3.8 25.1
06:05 1027 30.33 856 25.28 0.9 33.7 70 -3.9 25
06:10 1027 30.33 856 25.28 1.1 34 67 -4.3 24.3
06:15 1027 30.33 856 25.28 1.5 34.7 67 -4.1 24.7
06:20 1027 30.33 856 25.28 1.7 35.1 64 -4.3 24.2
06:25 1027 30.33 856 25.28 2 35.6 63 -4.2 24.4
06:30 1027 30.33 856 25.28 2.1 35.7 64 -4 24.8
06:35 1027 30.33 856 25.28 1.7 35 66 -3.9 25
06:40 1027 30.33 856 25.28 1.7 35.1 66 -4 24.7
06:45 1027 30.33 856 25.28 1.5 34.6 67 -4 24.9
06:50 1027 30.33 856 25.28 1.3 34.4 68 -3.9 24.9
06:55 1027 30.33 856 25.28 0.9 33.6 75 -3.1 26.4
07:00 1027 30.33 856 25.28 0.8 33.4 74 -3.3 26.1
07:05 1027 30.33 856 25.28 0.7 33.3 75 -3.3 26.1
07:10 1027 30.33 856 25.28 0.3 32.6 77 -3.2 26.2
07:15 1027 30.33 856 25.28 -0.1 31.9 79 -3.3 26.1
07:20 1027 30.33 856 25.28 -0.3 31.5 80 -3.3 26.1
07:25 1027 30.33 856 25.28 -0.3 31.4 80 -3.4 25.8
07:30 1027 30.33 856 25.28 0.2 32.4 75 -3.8 25.2
07:35 1027 30.33 856 25.28 1.1 33.9 71 -3.7 25.4
07:40 1027 30.33 856 25.28 1.5 34.7 69 -3.6 25.5
07:45 1027 30.33 856 25.28 1.8 35.3 68 -3.5 25.7
07:50 1027 30.33 856 25.28 2 35.7 67 -3.5 25.8
07:55 1027 30.33 856 25.28 2.2 36 66 -3.5 25.7
08:00 1027 30.33 856 25.28 2.4 36.4 65 -3.5 25.7
08:05 1027 30.33 856 25.28 2.7 36.9 62 -3.8 25.2
08:10 1027 30.33 856 25.28 3.2 37.8 60 -3.7 25.3
08:15 1027 30.33 856 25.28 3.8 38.9 59 -3.4 25.9
08:20 1027 30.33 856 25.28 4 39.2 60 -3.1 26.4
08:25 1027 30.33 856 25.28 4.2 39.5 59 -3.1 26.4
08:30 1027 30.33 856 25.28 4.1 39.3 60 -2.9 26.7
08:35 1027 30.33 856 25.28 4.2 39.5 59 -3.1 26.4
08:40 1027 30.33 856 25.28 4.4 40 58 -3.2 26.2
08:45 1027 30.33 856 25.28 4.8 40.7 55 -3.4 25.9
08:50 1027 30.33 856 25.28 4.9 40.9 56 -3.1 26.4
08:55 1027 30.33 856 25.28 5 40.9 55 -3.4 25.9
09:00 1027 30.33 856 25.28 5.2 41.3 52 -3.8 25.1
09:05 1027 30.33 856 25.28 5.6 42.1 53 -3.3 26
09:10 1027 30.33 856 25.28 6.4 43.6 50 -3.3 26.1
09:15 1027 30.33 856 25.28 7 44.6 48 -3.2 26.3
09:20 1027 30.33 856 25.28 7.4 45.2 46 -3.4 25.9
09:25 1027 30.33 856 25.28 7.7 45.9 47 -3 26.6
09:30 1027 30.33 856 25.28 7.8 46 46 -3.1 26.4
09:35 1027 30.33 856 25.28 8.1 46.6 47 -2.6 27.4
09:40 1027 30.33 856 25.28 8.5 47.4 42 -3.5 25.7
09:45 1027 30.33 856 25.28 9 48.2 42 -3.1 26.4
09:50 1027 30.33 856 25.28 8.9 48.1 43 -3 26.6
09:55 1027 30.33 856 25.28 8.8 47.9 43 -3 26.6
10:00 1027 30.33 856 25.28 9.3 48.8 43 -2.4 27.6
10:05 1027 30.33 856 25.28 10.1 50.1 40 -3 26.6
10:10 1027 30.33 856 25.28 10 50 41 -2.7 27.1
10:15 1027 30.33 856 25.28 9.6 49.3 42 -2.5 27.4
10:20 1027 30.33 856 25.28 9.9 49.8 42 -2.4 27.7
10:25 1027 30.33 856 25.28 10.7 51.2 39 -2.8 27
10:30 1027 30.33 856 25.28 10.7 51.3 39 -2.7 27.1
10:35 1027 30.33 856 25.28 10.7 51.3 40 -2.2 28.1
10:40 1027 30.33 856 25.28 11 51.7 39 -2.3 27.9
10:45 1027 30.33 856 25.28 11.7 53 37 -2.5 27.5
10:50 1027 30.33 856 25.28 11.9 53.3 36 -2.9 26.9
10:55 1027 30.33 856 25.28 11.4 52.4 37 -2.8 26.9
11:00 1027 30.33 856 25.28 11.8 53.2 35 -3.2 26.3
11:05 1027 30.33 856 25.28 11.6 52.9 36 -2.9 26.9
11:10 1027 30.33 856 25.28 11.8 53.3 37 -2.5 27.5
11:15 1027 30.33 856 25.28 12.3 54.1 35 -2.6 27.3
11:20 1027 30.33 856 25.28 12.3 54.2 35 -2.6 27.3
11:25 1027 30.33 856 25.28 12.8 55.1 34 -2.5 27.5
11:30 1026 30.3 856 25.28 12.2 53.9 38 -1.6 29.2
11:35 1026 30.3 856 25.28 11.6 52.9 37 -2.6 27.4
11:40 1026 30.3 856 25.28 12.5 54.5 35 -2.5 27.5
11:45 1026 30.3 856 25.28 12.4 54.3 38 -1.6 29
11:50 1026 30.3 856 25.28 13 55.4 35 -1.9 28.6
11:55 1026 30.3 856 25.28 13.5 56.3 34 -1.8 28.7
12:00 1026 30.3 856 25.28 13.3 55.9 36 -1.3 29.7
12:05 1026 30.3 855 25.25 12.9 55.3 35 -2.1 28.3
12:10 1026 30.3 855 25.25 13.2 55.7 35 -1.7 28.9
12:15 1026 30.3 855 25.25 13.4 56.2 35 -1.5 29.3
12:20 1026 30.3 855 25.25 13.8 56.9 34 -1.6 29.2
12:25 1026 30.3 855 25.25 13.5 56.2 34 -1.9 28.5
12:30 1026 30.3 855 25.25 12.8 55 36 -1.9 28.6
12:35 1026 30.3 855 25.25 13.7 56.6 34 -1.7 28.9
12:40 1026 30.3 855 25.25 14.3 57.7 34 -1.5 29.4
12:45 1026 30.3 855 25.25 14.5 58.1 34 -1 30.3
12:50 1026 30.3 855 25.25 13.8 56.8 36 -1 30.1
12:55 1026 30.3 855 25.25 13.8 56.8 35 -1.3 29.6
13:00 1026 30.3 855 25.25 14.2 57.5 33 -1.8 28.8
13:05 1026 30.3 855 25.25 13.5 56.3 37 -1 30.2
13:10 1026 30.3 855 25.25 14 57.2 34 -1.4 29.5
13:15 1025 30.27 855 25.25 14.5 58.2 36 -0.4 31.2
13:20 1025 30.27 855 25.25 15.4 59.7 31 -1.5 29.4
13:25 1025 30.27 855 25.25 14.9 58.9 33 -1.2 29.9
13:30 1025 30.27 855 25.25 15.7 60.2 31 -1.3 29.7
13:35 1025 30.27 854 25.22 14.9 58.8 33 -1.1 30
13:40 1025 30.27 854 25.22 14.7 58.5 32 -1.9 28.7
13:45 1025 30.27 854 25.22 16 60.7 30 -1.4 29.6
13:50 1025 30.27 854 25.22 16.6 61.9 30 -1 30.2
13:55 1025 30.27 854 25.22 16.5 61.7 30 -1 30.2
14:00 1025 30.27 854 25.22 16.6 61.8 30 -1.2 29.9
14:05 1025 30.27 854 25.22 16.3 61.3 31 -0.6 30.8
14:10 1025 30.27 854 25.22 16.3 61.3 31 -0.6 31
14:15 1025 30.27 854 25.22 16.6 61.8 30 -0.8 30.6
14:20 1025 30.27 854 25.22 16.8 62.2 29 -1.2 29.9
14:25 1024 30.24 854 25.22 16.7 62.1 28 -1.6 29.1
14:30 1024 30.24 853 25.19 15.8 60.4 30 -1.6 29.2
14:35 1024 30.24 853 25.19 16.2 61.1 28 -2.1 28.2
14:40 1024 30.24 853 25.19 17 62.5 27 -1.8 28.7
14:45 1024 30.24 853 25.19 18.1 64.5 27 -1.3 29.7
14:50 1024 30.24 853 25.19 18.2 64.8 27 -0.9 30.3
14:55 1024 30.24 853 25.19 18 64.4 26 -1.5 29.4
15:00 1024 30.24 853 25.19 17.8 64.1 25 -2.2 28
15:05 1024 30.24 853 25.19 16.9 62.3 27 -2.1 28.3
15:10 1024 30.24 853 25.19 17 62.6 26 -2.4 27.7
15:15 1024 30.24 853 25.19 18 64.5 25 -2.2 28.1
15:20 1024 30.24 853 25.19 18.4 65 24 -2.7 27.1
15:25 1023 30.21 853 25.19 18.9 66 24 -1.8 28.8
15:30 1023 30.21 853 25.19 18.8 65.8 26 -1.1 30.1
15:35 1023 30.21 852 25.16 18.1 64.5 26 -1.7 28.9
15:40 1023 30.21 852 25.16 18.7 65.7 26 -1.2 29.9
15:45 1023 30.21 852 25.16 19.3 66.7 25 -0.9 30.3
15:50 1023 30.21 852 25.16 19 66.3 25 -1.1 30
15:55 1023 30.21 852 25.16 18.7 65.6 27 -0.8 30.6
16:00 1023 30.21 852 25.16 18.5 65.3 27 -0.8 30.5
16:05 1023 30.21 852 25.16 18.8 65.9 26 -1.2 29.9
16:10 1023 30.21 852 25.16 19.3 66.7 25 -0.9 30.4
16:15 1023 30.21 852 25.16 18.7 65.7 27 -0.6 31
16:20 1022 30.18 852 25.16 18.7 65.7 25 -1.4 29.4
16:25 1022 30.18 852 25.16 19.2 66.6 25 -1 30.2
16:30 1022 30.18 852 25.16 19.5 67.1 25 -1 30.2
16:35 1022 30.18 852 25.16 18.7 65.6 26 -1 30.2
16:40 1022 30.18 851 25.13 18.1 64.6 26 -1.4 29.4
16:45 1022 30.18 851 25.13 18.9 66 25 -1.4 29.5
16:50 1022 30.18 851 25.13 19.5 67 25 -0.8 30.6
16:55 1022 30.18 851 25.13 19.1 66.4 25 -1.3 29.7
17:00 1022 30.18 851 25.13 19.7 67.4 26 -0.1 31.9
17:05 1022 30.18 851 25.13 20.2 68.3 24 -0.7 30.8
17:10 1022 30.18 851 25.13 20.5 68.9 24 -0.5 31
17:15 1022 30.18 851 25.13 20.4 68.8 24 -0.6 30.8
17:20 1022 30.18 851 25.13 19.8 67.6 25 -0.4 31.3
17:25 1022 30.18 851 25.13 19.7 67.4 25 -0.9 30.4
17:30 1021 30.15 851 25.13 19.9 67.9 24 -0.8 30.5
17:35 1021 30.15 851 25.13 20 68 25 -0.6 30.8
17:40 1021 30.15 851 25.13 19.2 66.5 25 -1.1 30
17:45 1021 30.15 851 25.13 19.3 66.7 26 -0.8 30.6
17:50 1021 30.15 850 25.1 19.6 67.3 25 -0.8 30.5
17:55 1021 30.15 850 25.1 19.9 67.7 25 -0.7 30.8
18:00 1021 30.15 850 25.1 20 67.9 25 -0.7 30.8
18:05 1021 30.15 850 25.1 19.8 67.6 25 -0.6 30.9
18:10 1021 30.15 850 25.1 19.7 67.5 25 -0.5 31.1
18:15 1021 30.15 850 25.1 19.7 67.4 25 -0.5 31.1
18:20 1021 30.15 850 25.1 19.7 67.5 25 -0.5 31
18:25 1021 30.15 850 25.1 19.2 66.5 27 -0.3 31.5
18:30 1021 30.15 850 25.1 18.7 65.6 27 -0.7 30.7
18:35 1021 30.15 850 25.1 18.1 64.5 28 -0.6 30.9
18:40 1021 30.15 850 25.1 18.2 64.7 28 -0.7 30.7
18:45 1021 30.15 850 25.1 18.3 64.9 28 -0.6 30.9
18:50 1021 30.15 850 25.1 18.3 65 28 -0.5 31.2
18:55 1021 30.15 850 25.1 18.2 64.8 28 -0.7 30.8
19:00 1021 30.15 850 25.1 18 64.4 28 -0.8 30.5
19:05 1021 30.15 850 25.1 17.8 64 28 -0.7 30.8
19:10 1021 30.15 850 25.1 17.9 64.2 28 -0.7 30.8
19:15 1021 30.15 850 25.1 17.9 64.2 28 -0.5 31.1
19:20 1021 30.15 850 25.1 17.8 64.1 29 -0.5 31.2
19:25 1021 30.15 850 25.1 17.9 64.1 29 -0.4 31.3
19:30 1021 30.15 850 25.1 17.7 63.9 29 -0.3 31.4
19:35 1021 30.15 850 25.1 17.5 63.5 29 -0.4 31.2
19:40 1021 30.15 850 25.1 17.4 63.3 30 -0.4 31.2
19:45 1021 30.15 850 25.1 17.3 63.1 29 -0.6 30.9
19:50 1021 30.15 850 25.1 17.1 62.7 30 -0.4 31.3
19:55 1021 30.15 850 25.1 16.5 61.6 43 4.1 39.3
20:00 1020 30.12 850 25.1 15.3 59.5 44 3.1 37.6
20:05 1020 30.12 850 25.1 14.1 57.4 48 3.4 38.2
20:10 1020 30.12 850 25.1 13.3 56 50 3.3 37.9
20:15 1020 30.12 850 25.1 12.8 55 53 3.5 38.2
20:20 1020 30.12 850 25.1 12.6 54.7 53 3.3 37.9
20:25 1020 30.12 850 25.1 12.2 54 53 2.9 37.3
20:30 1020 30.12 850 25.1 12 53.6 54 3 37.4
20:35 1020 30.12 850 25.1 11.8 53.2 55 3.1 37.7
20:40 1020 30.12 850 25.1 11.3 52.4 56 3 37.4
20:45 1020 30.12 850 25.1 10.9 51.7 57 2.9 37.2
20:50 1020 30.12 850 25.1 10.6 51.1 58 2.8 37
20:55 1020 30.12 850 25.1 10.3 50.6 58 2.5 36.6
21:00 1020 30.12 849 25.07 10.2 50.3 59 2.5 36.5
21:05 1020 30.12 849 25.07 10.6 51 52 1.3 34.3
21:10 1020 30.12 849 25.07 10.9 51.7 54 2 35.6
21:15 1020 30.12 849 25.07 10.3 50.6 57 2.2 35.9
21:20 1020 30.12 849 25.07 9.8 49.7 57 1.9 35.4
21:25 1020 30.12 849 25.07 9.7 49.5 57 1.6 35
21:30 1020 30.12 849 25.07 9.9 49.8 55 1.3 34.3
21:35 1020 30.12 849 25.07 10.2 50.3 54 1.3 34.4
21:40 1020 30.12 849 25.07 10.1 50.2 54 1.3 34.4
21:45 1020 30.12 849 25.07 10 50.1 54 1.2 34.1
21:50 1020 30.12 849 25.07 10.7 51.2 51 0.9 33.7
21:55 1020 30.12 849 25.07 10.5 50.9 52 1.1 33.9
22:00 1020 30.12 849 25.07 10.3 50.5 52 0.8 33.4
22:05 1020 30.12 849 25.07 10.3 50.5 50 0.5 32.9
22:10 1020 30.12 849 25.07 10.4 50.7 49 0.2 32.3
22:15 1020 30.12 849 25.07 10.5 51 50 0.5 32.9
22:20 1020 30.12 849 25.07 10.1 50.1 51 0.6 33
22:25 1020 30.12 849 25.07 9.9 49.7 52 0.6 33
22:30 1020 30.12 849 25.07 9.6 49.2 51 -0.1 31.8
22:35 1020 30.12 849 25.07 9.5 49.1 51 0 32
22:40 1020 30.12 849 25.07 9.5 49.1 51 -0.1 31.8
22:45 1020 30.12 849 25.07 9.5 49.1 50 -0.3 31.4
22:50 1019 30.09 849 25.07 9.5 49 50 -0.4 31.3
22:55 1019 30.09 849 25.07 9.6 49.3 48 -0.8 30.5
23:00 1019 30.09 849 25.07 9.5 49.1 48 -0.9 30.4
23:05 1019 30.09 849 25.07 9.3 48.7 49 -1 30.3
23:10 1019 30.09 849 25.07 9.2 48.6 48 -1.1 30
23:15 1019 30.09 849 25.07 9.6 49.2 45 -1.7 28.9
23:20 1019 30.09 849 25.07 9.7 49.5 46 -1.3 29.7
23:25 1019 30.09 848 25.04 9.5 49.2 44 -2 28.4
23:30 1019 30.09 848 25.04 9.7 49.5 41 -2.9 26.8
23:35 1019 30.09 848 25.04 10.1 50.3 41 -2.6 27.4
23:40 1019 30.09 848 25.04 10.2 50.3 39 -3.1 26.4
23:45 1019 30.09 848 25.04 10.1 50.1 45 -1.4 29.5
23:50 1019 30.09 848 25.04 9 48.1 43 -2.8 27
23:55 1019 30.09 848 25.04 10 49.9 37 -3.9 25.1
24:00 1019 30.09 848 25.04 10 50 39 -3.4 25.9